createdAt,value
2023-01-06T00:00:45.345Z,5.43
2023-01-06T00:04:05.207Z,5.42
2023-01-06T00:07:23.347Z,5.41
2023-01-06T00:10:39.486Z,5.39
2023-01-06T00:13:56.165Z,5.40
2023-01-06T00:17:12.261Z,5.41
2023-01-06T00:20:29.493Z,5.33
2023-01-06T00:23:46.806Z,5.34
2023-01-06T00:27:02.984Z,5.38
2023-01-06T00:30:21.983Z,5.44
2023-01-06T00:33:39.027Z,5.42
2023-01-06T00:36:56.982Z,5.28
2023-01-06T00:40:16.264Z,5.30
2023-01-06T00:43:32.211Z,5.27
2023-01-06T00:46:48.616Z,5.23
2023-01-06T00:50:04.738Z,5.18
2023-01-06T00:53:21.493Z,5.19
2023-01-06T00:56:37.960Z,5.18
2023-01-06T00:59:55.734Z,5.18
2023-01-06T01:03:11.922Z,5.18
2023-01-06T01:06:28.390Z,5.19
2023-01-06T01:09:44.519Z,5.22
2023-01-06T01:13:02.608Z,5.23
2023-01-06T01:16:19.656Z,5.25
2023-01-06T01:19:37.208Z,5.27
2023-01-06T01:22:53.698Z,5.26
2023-01-06T01:26:10.906Z,5.25
2023-01-06T01:29:28.110Z,5.27
2023-01-06T01:32:44.455Z,5.25
2023-01-06T01:36:00.683Z,5.26
2023-01-06T01:39:18.386Z,5.27
2023-01-06T01:42:37.222Z,5.25
2023-01-06T01:45:57.765Z,5.20
2023-01-06T01:49:20.046Z,5.14
2023-01-06T01:52:40.112Z,5.11
2023-01-06T01:55:58.720Z,5.16
2023-01-06T01:59:18.090Z,5.14
2023-01-06T02:02:35.473Z,5.08
2023-01-06T02:05:55.788Z,5.11
2023-01-06T02:09:17.675Z,5.10
2023-01-06T02:12:35.288Z,5.04
2023-01-06T02:15:52.490Z,5.03
2023-01-06T02:19:17.175Z,5.03
2023-01-06T02:22:47.229Z,4.94
2023-01-06T02:26:50.192Z,4.95
2023-01-06T02:31:12.799Z,4.98
2023-01-06T02:34:38.262Z,4.93
2023-01-06T02:38:02.091Z,4.94
2023-01-06T02:41:27.289Z,4.95
2023-01-06T02:44:48.711Z,4.93
2023-01-06T02:48:12.056Z,4.94
2023-01-06T02:51:34.077Z,4.96
2023-01-06T02:54:55.859Z,4.94
2023-01-06T02:58:17.005Z,4.88
2023-01-06T03:01:37.365Z,4.75
2023-01-06T03:04:56.393Z,4.77
2023-01-06T03:08:17.669Z,4.74
2023-01-06T03:11:37.846Z,4.73
2023-01-06T03:14:58.591Z,4.68
2023-01-06T03:18:15.263Z,4.74
2023-01-06T03:21:35.845Z,4.65
2023-01-06T03:24:54.477Z,4.56
2023-01-06T03:28:11.642Z,4.67
2023-01-06T03:31:34.734Z,4.69
2023-01-06T03:35:10.628Z,4.67
2023-01-06T03:38:35.414Z,4.65
2023-01-06T03:42:27.496Z,4.67
2023-01-06T03:45:51.532Z,4.70
2023-01-06T03:49:14.971Z,4.69
2023-01-06T03:52:36.921Z,4.63
2023-01-06T03:55:58.492Z,4.64
2023-01-06T03:59:19.548Z,4.61
2023-01-06T04:02:38.101Z,4.62
2023-01-06T04:05:55.203Z,4.51
2023-01-06T04:09:11.842Z,4.48
2023-01-06T04:12:44.046Z,4.54
2023-01-06T04:16:02.075Z,4.43
2023-01-06T04:19:18.443Z,4.49
2023-01-06T04:22:35.799Z,4.50
2023-01-06T04:25:52.000Z,4.47
2023-01-06T04:29:09.975Z,4.47
2023-01-06T04:32:26.530Z,4.45
2023-01-06T04:35:42.839Z,4.48
2023-01-06T04:38:59.439Z,4.47
2023-01-06T04:42:15.654Z,4.48
2023-01-06T04:45:31.871Z,4.49
2023-01-06T04:48:48.363Z,4.49
2023-01-06T04:52:07.824Z,4.40
2023-01-06T04:55:21.624Z,4.39
2023-01-06T04:58:38.011Z,4.30
2023-01-06T05:01:54.563Z,4.29
2023-01-06T05:05:11.402Z,4.30
2023-01-06T05:08:27.742Z,4.25
2023-01-06T05:11:43.904Z,4.18
2023-01-06T05:15:00.168Z,4.22
2023-01-06T05:18:16.471Z,4.21
2023-01-06T05:21:35.207Z,4.15
2023-01-06T05:24:51.521Z,4.21
2023-01-06T05:28:07.658Z,4.12
2023-01-06T05:31:24.438Z,4.15
2023-01-06T05:34:39.990Z,4.13
2023-01-06T05:37:56.162Z,4.08
2023-01-06T05:41:13.805Z,4.05
2023-01-06T05:44:29.937Z,4.01
2023-01-06T05:47:46.211Z,4.01
2023-01-06T05:51:07.835Z,3.99
2023-01-06T05:54:25.244Z,4.02
2023-01-06T05:57:44.601Z,4.03
2023-01-06T06:01:03.263Z,3.94
2023-01-06T06:04:21.808Z,3.90
2023-01-06T06:07:38.285Z,3.84
2023-01-06T06:10:56.015Z,3.81
2023-01-06T06:14:15.370Z,3.78
2023-01-06T06:17:32.199Z,3.83
2023-01-06T06:20:48.273Z,3.83
2023-01-06T06:24:06.655Z,3.84
2023-01-06T06:27:22.723Z,3.84
2023-01-06T06:30:38.978Z,3.80
2023-01-06T06:33:57.619Z,3.79
2023-01-06T06:37:13.857Z,3.80
2023-01-06T06:40:30.009Z,3.81
2023-01-06T06:43:46.966Z,3.75
2023-01-06T06:47:03.383Z,3.74
2023-01-06T06:50:21.456Z,3.67
2023-01-06T06:53:38.199Z,3.63
2023-01-06T06:56:54.372Z,3.63
2023-01-06T07:00:14.441Z,3.60
2023-01-06T07:03:31.407Z,3.58
2023-01-06T07:06:47.943Z,3.65
2023-01-06T07:10:04.685Z,3.62
2023-01-06T07:13:21.058Z,3.62
2023-01-06T07:16:37.098Z,3.64
2023-01-06T07:19:53.200Z,3.64
2023-01-06T07:23:09.603Z,3.57
2023-01-06T07:26:25.765Z,3.56
2023-01-06T07:29:41.935Z,3.52
2023-01-06T07:32:58.726Z,3.61
2023-01-06T07:36:16.633Z,3.62
2023-01-06T07:39:33.292Z,3.56
2023-01-06T07:42:49.548Z,3.59
2023-01-06T07:46:06.021Z,3.69
2023-01-06T07:49:22.820Z,3.63
2023-01-06T07:52:42.424Z,3.60
2023-01-06T07:56:02.794Z,3.61
2023-01-06T07:59:19.131Z,3.62
2023-01-06T08:02:35.479Z,3.59
2023-01-06T08:05:52.333Z,3.70
2023-01-06T08:09:09.776Z,3.79
2023-01-06T08:12:26.567Z,3.78
2023-01-06T08:15:43.491Z,3.96
2023-01-06T08:18:59.712Z,4.11
2023-01-06T08:22:16.328Z,4.42
2023-01-06T08:25:32.681Z,4.50
2023-01-06T08:28:50.270Z,4.57
2023-01-06T08:32:10.751Z,4.72
2023-01-06T08:35:30.757Z,4.89
2023-01-06T08:38:49.803Z,5.00
2023-01-06T08:42:07.100Z,5.25
2023-01-06T08:45:27.283Z,5.49
2023-01-06T08:48:46.923Z,5.56
2023-01-06T08:52:04.952Z,5.60
2023-01-06T08:55:21.543Z,5.73
2023-01-06T08:58:38.098Z,5.71
2023-01-06T09:02:00.264Z,5.70
2023-01-06T09:05:19.868Z,5.57
2023-01-06T09:08:36.278Z,5.57
2023-01-06T09:11:53.667Z,5.61
2023-01-06T09:15:10.511Z,5.69
2023-01-06T09:18:26.586Z,5.93
2023-01-06T09:21:43.923Z,5.93
2023-01-06T09:25:00.053Z,5.76
2023-01-06T09:28:16.277Z,5.67
2023-01-06T09:31:32.610Z,5.49
2023-01-06T09:34:48.796Z,5.44
2023-01-06T09:38:05.651Z,5.32
2023-01-06T09:42:03.911Z,5.24
2023-01-06T09:45:24.634Z,4.95
2023-01-06T09:48:45.598Z,4.99
2023-01-06T09:52:05.811Z,5.02
2023-01-06T09:55:29.286Z,5.08
2023-01-06T09:58:49.697Z,5.05
2023-01-06T10:02:07.673Z,5.15
2023-01-06T10:05:32.057Z,5.10
2023-01-06T10:08:54.277Z,4.99
2023-01-06T10:12:19.857Z,4.84
2023-01-06T10:15:43.050Z,4.95
2023-01-06T10:19:06.672Z,5.10
2023-01-06T10:22:29.125Z,5.01
2023-01-06T10:25:50.706Z,5.11
2023-01-06T10:29:15.277Z,5.15
2023-01-06T10:33:02.203Z,5.18
2023-01-06T10:36:34.888Z,5.22
2023-01-06T10:39:56.455Z,5.01
2023-01-06T10:43:17.889Z,4.89
2023-01-06T10:46:38.458Z,4.74
2023-01-06T10:49:55.260Z,4.83
2023-01-06T10:53:12.173Z,4.91
2023-01-06T10:56:28.735Z,4.99
2023-01-06T11:00:15.812Z,5.00
2023-01-06T11:03:37.815Z,4.93
2023-01-06T11:06:58.226Z,4.91
2023-01-06T11:10:33.190Z,4.93
2023-01-06T11:13:55.998Z,4.94
2023-01-06T11:17:15.258Z,5.02
2023-01-06T11:20:40.277Z,5.05
2023-01-06T11:23:58.700Z,5.02
2023-01-06T11:27:26.788Z,5.07
2023-01-06T11:30:50.064Z,5.06
2023-01-06T11:34:09.753Z,4.92
2023-01-06T11:37:36.381Z,4.83
2023-01-06T11:40:58.259Z,4.95
2023-01-06T11:44:23.560Z,5.06
2023-01-06T11:47:40.089Z,5.09
2023-01-06T11:51:06.024Z,5.18
2023-01-06T11:54:32.865Z,5.24
2023-01-06T11:57:54.635Z,5.28
2023-01-06T12:01:15.129Z,5.28
2023-01-06T12:04:35.903Z,5.30
2023-01-06T12:07:58.758Z,5.24
2023-01-06T12:11:22.629Z,5.26
2023-01-06T12:14:50.450Z,5.24
2023-01-06T12:18:11.901Z,5.34
2023-01-06T12:21:37.520Z,5.37
2023-01-06T12:24:56.167Z,5.31
2023-01-06T12:28:21.229Z,5.41
2023-01-06T12:31:47.194Z,5.42
2023-01-06T12:35:05.860Z,5.54
2023-01-06T12:38:31.023Z,5.58
2023-01-06T12:41:52.602Z,5.62
2023-01-06T12:45:14.943Z,5.68
2023-01-06T12:48:41.345Z,5.69
2023-01-06T12:52:01.689Z,5.72
2023-01-06T12:55:24.978Z,5.80
2023-01-06T12:58:48.571Z,5.82
2023-01-06T13:02:10.083Z,5.75
2023-01-06T13:05:54.176Z,5.70
2023-01-06T13:09:40.483Z,5.67
2023-01-06T13:13:20.717Z,5.70
2023-01-06T13:16:43.822Z,5.78
2023-01-06T13:20:03.808Z,5.82
2023-01-06T13:23:36.791Z,5.84
2023-01-06T13:27:27.264Z,5.72
2023-01-06T13:31:12.150Z,5.73
2023-01-06T13:35:13.198Z,5.78
2023-01-06T13:39:02.517Z,5.76
2023-01-06T13:42:23.583Z,5.69
2023-01-06T13:45:45.955Z,5.64
2023-01-06T13:49:07.376Z,5.66
2023-01-06T13:52:27.949Z,5.57
2023-01-06T13:55:45.183Z,5.57
2023-01-06T13:59:26.860Z,5.48
2023-01-06T14:03:28.622Z,5.56
2023-01-06T14:06:57.539Z,5.49
2023-01-06T14:10:31.012Z,5.50
2023-01-06T14:13:51.921Z,5.49
2023-01-06T14:17:08.771Z,5.50
2023-01-06T14:20:38.249Z,5.57
2023-01-06T14:24:06.634Z,5.59
2023-01-06T14:27:23.240Z,5.53
2023-01-06T14:30:42.990Z,5.43
2023-01-06T14:34:02.217Z,5.39
2023-01-06T14:37:23.467Z,5.39
2023-01-06T14:40:43.778Z,5.35
2023-01-06T14:44:06.624Z,5.38
2023-01-06T14:47:28.823Z,5.35
2023-01-06T14:50:50.127Z,5.30
2023-01-06T14:54:14.349Z,5.34
2023-01-06T14:57:43.212Z,5.42
2023-01-06T15:01:00.576Z,5.44
2023-01-06T15:04:31.120Z,5.40
2023-01-06T15:07:49.903Z,5.34
2023-01-06T15:11:18.713Z,5.33
2023-01-06T15:14:41.343Z,5.35
2023-01-06T15:17:59.276Z,5.41
2023-01-06T15:21:16.051Z,5.32
2023-01-06T15:24:37.542Z,5.37
2023-01-06T15:27:58.673Z,5.30
2023-01-06T15:31:24.694Z,5.35
2023-01-06T15:34:47.478Z,5.28
2023-01-06T15:38:13.590Z,5.09
2023-01-06T15:41:41.206Z,5.04
2023-01-06T15:45:07.795Z,4.96
2023-01-06T15:48:31.139Z,4.94
2023-01-06T15:51:49.470Z,4.96
2023-01-06T15:55:08.655Z,4.96
2023-01-06T15:58:31.277Z,5.05
2023-01-06T16:01:54.067Z,5.11
2023-01-06T16:05:11.391Z,5.11
2023-01-06T16:08:33.626Z,5.10
2023-01-06T16:12:02.311Z,5.03
2023-01-06T16:15:51.541Z,5.08
2023-01-06T16:19:05.952Z,5.07
2023-01-06T16:22:38.639Z,5.06
2023-01-06T16:25:56.649Z,5.00
2023-01-06T16:29:29.415Z,5.01
2023-01-06T16:32:48.094Z,4.98
2023-01-06T16:36:05.345Z,4.98
2023-01-06T16:39:21.848Z,4.98
2023-01-06T16:42:46.563Z,4.90
2023-01-06T16:46:06.037Z,4.80
2023-01-06T16:49:22.700Z,4.80
2023-01-06T16:52:39.339Z,4.88
2023-01-06T16:56:00.697Z,4.85
2023-01-06T16:59:23.169Z,4.80
2023-01-06T17:02:40.070Z,4.77
2023-01-06T17:05:56.916Z,4.65
2023-01-06T17:09:22.026Z,4.67
2023-01-06T17:12:54.077Z,4.57
2023-01-06T17:16:22.219Z,4.52
2023-01-06T17:19:42.141Z,4.50
2023-01-06T17:22:58.883Z,4.47
2023-01-06T17:26:22.141Z,4.44
2023-01-06T17:29:45.464Z,4.38
2023-01-06T17:33:03.280Z,4.34
2023-01-06T17:36:29.221Z,4.32
2023-01-06T17:39:49.680Z,4.24
2023-01-06T17:43:11.500Z,4.21
2023-01-06T17:46:35.031Z,4.24
2023-01-06T17:49:56.076Z,4.20
2023-01-06T17:53:42.059Z,4.21
2023-01-06T17:57:00.494Z,4.26
2023-01-06T18:00:33.114Z,4.26
2023-01-06T18:03:54.156Z,4.26
2023-01-06T18:07:14.073Z,4.26
2023-01-06T18:10:32.362Z,4.29
2023-01-06T18:13:51.880Z,4.26
2023-01-06T18:17:14.009Z,4.25
2023-01-06T18:20:31.543Z,4.28
2023-01-06T18:23:53.227Z,4.27
2023-01-06T18:27:16.850Z,4.28
2023-01-06T18:30:34.757Z,4.28
2023-01-06T18:33:51.102Z,4.23
2023-01-06T18:37:08.816Z,4.08
2023-01-06T18:40:29.931Z,4.11
2023-01-06T18:43:49.695Z,4.15
2023-01-06T18:47:07.010Z,4.14
2023-01-06T18:50:42.778Z,4.16
2023-01-06T18:54:01.186Z,4.04
2023-01-06T18:57:25.449Z,4.02
2023-01-06T19:00:49.792Z,4.07
2023-01-06T19:04:26.968Z,4.11
2023-01-06T19:07:45.450Z,4.16
2023-01-06T19:11:01.960Z,4.29
2023-01-06T19:14:24.240Z,4.34
2023-01-06T19:17:44.264Z,4.33
2023-01-06T19:21:02.645Z,4.28
2023-01-06T19:24:48.913Z,4.30
2023-01-06T19:28:07.777Z,4.37
2023-01-06T19:31:28.408Z,4.44
2023-01-06T19:34:45.443Z,4.31
2023-01-06T19:38:07.451Z,4.32
2023-01-06T19:41:29.723Z,4.34
2023-01-06T19:44:48.420Z,4.36
2023-01-06T19:48:06.143Z,4.34
2023-01-06T19:51:35.250Z,4.36
2023-01-06T19:54:51.998Z,4.45
2023-01-06T19:58:12.958Z,4.48
2023-01-06T20:01:30.790Z,4.52
2023-01-06T20:04:47.549Z,4.55
2023-01-06T20:08:04.590Z,4.58
2023-01-06T20:11:23.599Z,4.65
2023-01-06T20:14:40.695Z,4.69
2023-01-06T20:17:59.963Z,4.73
2023-01-06T20:21:19.219Z,4.70
2023-01-06T20:24:37.577Z,4.68
2023-01-06T20:27:54.415Z,4.68
2023-01-06T20:31:11.210Z,4.73
2023-01-06T20:34:27.470Z,4.82
2023-01-06T20:37:44.593Z,4.88
2023-01-06T20:41:01.695Z,4.97
2023-01-06T20:44:18.229Z,4.96
2023-01-06T20:47:35.115Z,4.88
2023-01-06T20:50:54.073Z,4.92
2023-01-06T20:54:12.812Z,5.00
2023-01-06T20:57:29.297Z,5.08
2023-01-06T21:00:46.933Z,5.07
2023-01-06T21:04:03.539Z,5.06
2023-01-06T21:07:20.354Z,5.02
2023-01-06T21:10:39.798Z,5.11
2023-01-06T21:13:56.175Z,5.21
2023-01-06T21:17:13.252Z,5.30
2023-01-06T21:20:29.635Z,5.39
2023-01-06T21:23:46.525Z,5.44
2023-01-06T21:27:02.859Z,5.49
2023-01-06T21:30:21.496Z,5.50
2023-01-06T21:33:37.851Z,5.55
2023-01-06T21:36:54.213Z,5.56
2023-01-06T21:40:12.107Z,5.61
2023-01-06T21:43:28.586Z,5.61
2023-01-06T21:46:45.709Z,5.63
2023-01-06T21:50:04.476Z,5.67
2023-01-06T21:53:23.723Z,5.72
2023-01-06T21:56:43.240Z,5.76
2023-01-06T21:59:59.429Z,5.79
2023-01-06T22:03:16.350Z,5.85
2023-01-06T22:06:34.623Z,5.84
2023-01-06T22:09:52.725Z,5.87
2023-01-06T22:13:09.381Z,5.89
2023-01-06T22:16:26.572Z,5.92
2023-01-06T22:19:43.645Z,5.97
2023-01-06T22:23:00.177Z,5.98
2023-01-06T22:26:16.749Z,6.05
2023-01-06T22:29:33.148Z,6.12
2023-01-06T22:32:54.653Z,6.16
2023-01-06T22:36:11.954Z,6.20
2023-01-06T22:39:28.142Z,6.24
2023-01-06T22:42:44.729Z,6.27
2023-01-06T22:46:05.082Z,6.29
2023-01-06T22:49:21.847Z,6.35
2023-01-06T22:52:38.636Z,6.39
2023-01-06T22:56:03.009Z,6.38
2023-01-06T22:59:19.376Z,6.39
2023-01-06T23:02:36.403Z,6.42
2023-01-06T23:06:03.408Z,6.44
2023-01-06T23:09:19.870Z,6.48
2023-01-06T23:12:36.087Z,6.52
2023-01-06T23:15:53.052Z,6.58
2023-01-06T23:19:09.452Z,6.61
2023-01-06T23:22:25.825Z,6.63
2023-01-06T23:25:41.966Z,6.67
2023-01-06T23:28:59.338Z,6.70
2023-01-06T23:32:15.593Z,6.74
2023-01-06T23:35:32.879Z,6.76
2023-01-06T23:38:50.004Z,6.80
2023-01-06T23:42:08.532Z,6.84
2023-01-06T23:45:25.017Z,6.88
2023-01-06T23:48:42.730Z,6.89
2023-01-06T23:51:58.947Z,6.94
2023-01-06T23:55:16.846Z,6.99
2023-01-06T23:58:34.747Z,7.01
